Lost Hills, California
Current Conditions -  °F | °C
As of 1:54 AM on Saturday 25 Oct 2014 (Local Time) from KBFL Reporting Station
Clear Clear  
Wind Chill: 65°   Ceiling: Unl
Heat Index: 65°   Visibility: 8mi
Dew Point: 45°   Wind: 6mph
Humidity: 48%   Direction: 90°E
Pressure: 29.94"   Gusts: NA
Location:  35.62°N, 119.7°W
Report Text: KBFL 250854Z AUTO 09005KT 8SM CLR 18/07 A2994 RMK AO2 SLP133 T01830072 50003
Loading
Personal Weather Stations






























Interactive Weather Map New forecast layout! Learn more

10-Day Weather Forecast

Advertisements
Track Severe Weather on mobile